Time;durP1;ratioP1;P1;durP2;ratioP2;P2;SDS_P1;SDS_P2;PMS_P1;PMS_P2;Temp;Humidity;BMP_temperature;BMP_pressure;BME280_temperature;BME280_humidity;BME280_pressure;Samples;Min_cycle;Max_cycle;Signal;HPM_P1;HPM_P2
2023/06/14 00:00:09;;;;;;;6.20;3.47;;;;;;;18.12;47.63;98983.25;343492;28;2431;-63
2023/06/14 00:00:24;;;;;;;6.47;3.33;;;;;;;18.12;47.72;98985.88;344304;28;1693;-63
2023/06/14 00:00:40;;;;;;;5.32;3.30;;;;;;;18.12;47.84;98980.63;344891;28;1955;-63
2023/06/14 00:00:53;;;;;;;4.22;3.20;;;;;;;18.11;47.41;98986.81;344958;28;1260;-62
2023/06/14 00:01:06;;;;;;;4.72;3.20;;;;;;;18.13;47.58;98984.94;344042;28;1783;-63
2023/06/14 00:01:20;;;;;;;5.47;3.13;;;;;;;18.09;48.07;98983.47;344701;28;1660;-62
2023/06/14 00:01:34;;;;;;;5.15;3.03;;;;;;;18.13;47.32;98984.94;344852;28;2684;-63
2023/06/14 00:01:47;;;;;;;3.80;2.90;;;;;;;18.14;47.01;98986.59;344600;28;1254;-63
2023/06/14 00:01:59;;;;;;;4.55;3.13;;;;;;;18.14;47.52;98987.44;344657;28;1601;-63
2023/06/14 00:02:11;;;;;;;4.25;3.40;;;;;;;18.13;47.52;98991.03;343769;28;1648;-62
2023/06/14 00:02:23;;;;;;;4.40;3.42;;;;;;;18.09;48.50;98986.09;344877;28;1527;-63
2023/06/14 00:02:35;;;;;;;4.40;3.25;;;;;;;18.10;47.62;98990.41;344878;28;1135;-63
2023/06/14 00:02:48;;;;;;;5.45;3.20;;;;;;;18.07;48.19;98983.59;344839;28;1442;-63
2023/06/14 00:03:00;;;;;;;5.15;3.28;;;;;;;18.07;47.91;98990.63;343645;28;1578;-63
2023/06/14 00:03:17;;;;;;;4.50;3.40;;;;;;;18.08;47.96;98982.63;344509;28;1674;-63
2023/06/14 00:03:31;;;;;;;4.20;3.30;;;;;;;18.07;47.69;98985.38;343941;28;2015;-62
2023/06/14 00:03:43;;;;;;;5.07;3.30;;;;;;;18.09;47.53;98988.72;344799;28;1185;-63
2023/06/14 00:03:56;;;;;;;5.07;3.33;;;;;;;18.09;47.15;98988.72;343881;28;1893;-63
2023/06/14 00:04:08;;;;;;;5.75;3.58;;;;;;;18.10;46.96;98987.78;344845;28;1328;-63
2023/06/14 00:04:21;;;;;;;5.60;3.70;;;;;;;18.10;46.72;98986.00;344184;28;1877;-63
2023/06/14 00:04:34;;;;;;;5.60;3.78;;;;;;;18.12;46.70;98984.09;343642;28;1023;-63
2023/06/14 00:04:48;;;;;;;6.72;3.42;;;;;;;18.10;47.54;98986.00;344972;28;1228;-63
2023/06/14 00:05:00;;;;;;;6.55;3.30;;;;;;;18.09;47.03;98978.22;344925;28;1075;-63
2023/06/14 00:05:12;;;;;;;5.38;3.22;;;;;;;18.10;46.92;98985.16;345021;28;1082;-63
2023/06/14 00:05:24;;;;;;;4.47;3.17;;;;;;;18.10;47.01;98986.00;343694;28;1705;-62
2023/06/14 00:05:42;;;;;;;3.53;3.10;;;;;;;18.10;46.87;98986.00;344635;28;1583;-63
2023/06/14 00:05:54;;;;;;;4.80;3.30;;;;;;;18.12;46.96;98983.25;343557;28;1198;-63
2023/06/14 00:06:06;;;;;;;5.22;3.42;;;;;;;18.13;47.15;98991.03;343212;28;1705;-63
2023/06/14 00:06:18;;;;;;;5.22;3.45;;;;;;;18.13;46.51;98985.78;344017;28;1863;-62
2023/06/14 00:06:30;;;;;;;5.55;3.40;;;;;;;18.16;46.64;98987.34;343659;28;1755;-63
2023/06/14 00:06:45;;;;;;;4.90;3.20;;;;;;;18.16;46.45;98989.97;344311;28;2062;-63
2023/06/14 00:06:57;;;;;;;4.70;3.15;;;;;;;18.17;46.60;98986.41;344869;28;1272;-62
2023/06/14 00:07:09;;;;;;;5.05;3.30;;;;;;;18.19;46.70;98988.88;344168;28;1595;-63
2023/06/14 00:07:38;;;;;;;5.25;3.47;;;;;;;18.16;46.84;98989.97;344928;28;1429;-63
2023/06/14 00:07:53;;;;;;;6.15;3.45;;;;;;;18.12;47.89;98988.50;344298;28;1674;-63
2023/06/14 00:08:07;;;;;;;5.65;3.40;;;;;;;18.15;47.44;98994.41;344307;28;1707;-63
2023/06/14 00:08:21;;;;;;;4.22;3.13;;;;;;;18.19;46.83;98989.75;344380;28;1723;-62
2023/06/14 00:08:33;;;;;;;4.25;3.00;;;;;;;18.21;46.49;98987.84;345132;28;1037;-63
2023/06/14 00:08:45;;;;;;;3.97;3.20;;;;;;;18.20;46.64;98991.41;344486;28;1301;-63
2023/06/14 00:08:57;;;;;;;4.80;3.30;;;;;;;18.21;46.30;98992.25;344886;28;1131;-63
2023/06/14 00:09:09;;;;;;;4.28;3.10;;;;;;;18.21;46.21;98987.84;343917;28;1658;-63
2023/06/14 00:09:21;;;;;;;4.78;3.17;;;;;;;18.21;46.40;98987.84;344843;28;1809;-63
2023/06/14 00:09:33;;;;;;;4.50;3.35;;;;;;;18.23;46.15;98991.19;345002;28;1297;-63
2023/06/14 00:09:45;;;;;;;5.30;3.50;;;;;;;18.20;46.14;98980.06;343261;28;2011;-62
2023/06/14 00:09:57;;;;;;;4.78;3.53;;;;;;;18.18;46.27;98990.69;344461;28;1518;-63
2023/06/14 00:10:14;;;;;;;4.47;3.40;;;;;;;18.20;46.25;98991.41;344621;28;1192;-62
2023/06/14 00:10:30;;;;;;;4.85;3.38;;;;;;;18.22;45.96;98989.50;343982;28;1850;-64
2023/06/14 00:10:42;;;;;;;4.65;3.45;;;;;;;18.22;46.14;98993.94;343768;28;1606;-62
2023/06/14 00:10:54;;;;;;;4.65;3.50;;;;;;;18.19;46.72;98984.50;344209;28;1788;-63
2023/06/14 00:11:07;;;;;;;5.47;3.50;;;;;;;18.14;47.79;98984.81;345124;28;1332;-63
2023/06/14 00:11:19;;;;;;;7.07;3.38;;;;;;;18.15;47.31;98988.31;344562;28;1962;-62
2023/06/14 00:11:32;;;;;;;5.97;3.20;;;;;;;18.14;47.05;98987.44;344972;28;1867;-63
2023/06/14 00:11:44;;;;;;;4.65;3.10;;;;;;;18.16;46.51;98987.34;344045;28;1646;-63
2023/06/14 00:11:56;;;;;;;4.45;3.10;;;;;;;18.18;46.66;98988.06;344959;28;1212;-63
2023/06/14 00:12:09;;;;;;;4.53;3.35;;;;;;;18.18;47.33;98988.06;344060;28;1448;-62
2023/06/14 00:12:20;;;;;;;4.88;3.40;;;;;;;18.17;47.27;98986.41;344889;28;1325;-62
2023/06/14 00:12:36;;;;;;;5.25;3.50;;;;;;;18.14;47.66;98992.69;345052;28;1273;-62
2023/06/14 00:12:48;;;;;;;4.57;3.35;;;;;;;18.13;47.40;98990.22;344677;28;1722;-63
2023/06/14 00:13:01;;;;;;;4.50;3.35;;;;;;;18.15;47.01;98988.31;343714;28;1258;-63
2023/06/14 00:13:16;;;;;;;4.75;3.50;;;;;;;18.16;47.04;98989.97;343985;28;1602;-63
2023/06/14 00:13:28;;;;;;;4.55;3.40;;;;;;;18.14;47.23;98983.97;345203;28;1092;-63
2023/06/14 00:13:41;;;;;;;4.40;3.40;;;;;;;18.14;46.93;98992.69;343243;28;1600;-63
2023/06/14 00:13:53;;;;;;;5.22;3.40;;;;;;;18.15;46.77;98990.94;342816;28;1745;-63
2023/06/14 00:14:05;;;;;;;5.75;3.75;;;;;;;18.15;46.55;98993.56;343260;28;2018;-63
2023/06/14 00:14:17;;;;;;;5.35;3.80;;;;;;;18.17;46.78;98991.66;343463;28;1163;-63
2023/06/14 00:14:29;;;;;;;4.15;3.50;;;;;;;18.14;46.91;98986.59;342616;28;1729;-63
2023/06/14 00:14:41;;;;;;;4.07;3.30;;;;;;;18.12;47.86;98989.34;343236;28;1938;-63
2023/06/14 00:14:53;;;;;;;4.05;3.28;;;;;;;18.14;46.98;98986.59;343779;28;1079;-63
2023/06/14 00:15:09;;;;;;;3.75;3.30;;;;;;;18.15;46.86;98988.31;343024;28;2142;-63
2023/06/14 00:15:23;;;;;;;3.97;3.20;;;;;;;18.13;47.58;98990.22;343084;28;1713;-63
2023/06/14 00:15:35;;;;;;;4.40;3.20;;;;;;;18.12;47.96;98988.50;342816;28;1650;-63
2023/06/14 00:15:47;;;;;;;4.68;3.28;;;;;;;18.12;47.18;98983.25;343375;28;1345;-63
2023/06/14 00:15:59;;;;;;;4.00;3.10;;;;;;;18.14;47.06;98982.19;344178;28;1627;-63
2023/06/14 00:16:12;;;;;;;4.38;3.17;;;;;;;18.16;46.51;98985.53;343778;28;1204;-63
2023/06/14 00:16:24;;;;;;;6.00;3.15;;;;;;;18.17;46.45;98987.22;343604;28;1833;-62
2023/06/14 00:16:38;;;;;;;7.38;3.28;;;;;;;18.19;46.32;98984.50;343977;28;1793;-63
2023/06/14 00:16:52;;;;;;;5.90;3.30;;;;;;;18.20;46.11;98985.31;343767;28;1239;-63
2023/06/14 00:17:04;;;;;;;4.97;3.25;;;;;;;18.20;46.33;98985.31;343565;28;1630;-62
2023/06/14 00:17:16;;;;;;;3.97;3.30;;;;;;;18.20;46.30;98990.56;344047;28;1910;-62
2023/06/14 00:17:31;;;;;;;4.53;3.30;;;;;;;18.19;46.58;98981.84;344711;28;1581;-62
2023/06/14 00:17:44;;;;;;;5.20;3.30;;;;;;;18.21;46.36;98982.59;344899;28;1172;-63
2023/06/14 00:18:03;;;;;;;4.88;3.28;;;;;;;18.24;45.91;98984.97;344756;28;1199;-63
2023/06/14 00:18:16;;;;;;;4.43;3.40;;;;;;;18.24;45.80;98987.59;343647;28;1626;-63
2023/06/14 00:18:29;;;;;;;4.40;3.40;;;;;;;18.18;46.88;98980.16;344043;28;1981;-63
2023/06/14 00:18:41;;;;;;;4.65;3.20;;;;;;;18.17;46.47;98987.22;343483;28;1944;-63
2023/06/14 00:18:53;;;;;;;4.93;3.42;;;;;;;18.18;46.25;98985.44;344177;28;1110;-63
2023/06/14 00:19:06;;;;;;;4.82;3.42;;;;;;;18.14;46.81;98982.19;344474;28;2122;-62
2023/06/14 00:19:19;;;;;;;6.40;3.47;;;;;;;18.14;46.67;98986.59;344213;28;1656;-63
2023/06/14 00:19:34;;;;;;;6.15;3.40;;;;;;;18.14;46.45;98994.50;344886;28;1357;-63
2023/06/14 00:19:46;;;;;;;7.28;3.45;;;;;;;18.13;46.56;98982.31;344430;28;1118;-63
2023/06/14 00:19:59;;;;;;;7.55;3.40;;;;;;;18.13;46.58;98983.16;344826;28;1102;-63
2023/06/14 00:20:11;;;;;;;7.82;3.35;;;;;;;18.16;46.65;98984.69;344743;28;1706;-63
2023/06/14 00:20:23;;;;;;;3.80;3.13;;;;;;;18.18;46.21;98988.06;343700;28;1978;-62
2023/06/14 00:20:35;;;;;;;5.15;3.15;;;;;;;18.21;45.90;98982.59;341958;28;1091;-62
2023/06/14 00:20:47;;;;;;;5.75;3.30;;;;;;;18.22;45.69;98983.41;342308;28;1470;-63
2023/06/14 00:20:59;;;;;;;5.88;3.35;;;;;;;18.22;45.60;98986.03;343524;28;1637;-62
2023/06/14 00:21:12;;;;;;;4.57;3.30;;;;;;;18.19;45.61;98987.13;342209;28;1869;-62
2023/06/14 00:21:24;;;;;;;5.15;3.53;;;;;;;18.17;45.47;98984.59;343392;28;1849;-63
2023/06/14 00:21:37;;;;;;;4.80;3.67;;;;;;;18.16;45.51;98980.28;343549;28;1063;-63
2023/06/14 00:21:50;;;;;;;4.68;3.47;;;;;;;18.17;45.85;98986.41;343321;28;1878;-63
2023/06/14 00:22:03;;;;;;;3.97;3.22;;;;;;;18.20;45.59;98990.56;343155;28;1379;-63
2023/06/14 00:22:15;;;;;;;3.67;3.13;;;;;;;18.20;45.33;98983.50;343022;28;1765;-63
2023/06/14 00:22:31;;;;;;;4.07;3.22;;;;;;;18.19;45.32;98984.50;342345;28;2164;-63
2023/06/14 00:22:45;;;;;;;5.68;3.20;;;;;;;18.19;45.20;98979.22;341918;28;2069;-63
2023/06/14 00:22:57;;;;;;;5.28;3.17;;;;;;;18.19;45.26;98984.50;342889;28;1996;-63
2023/06/14 00:23:10;;;;;;;4.60;3.33;;;;;;;18.18;45.31;98982.78;343072;28;1717;-63
2023/06/14 00:23:22;;;;;;;4.75;3.42;;;;;;;18.18;45.14;98988.06;343295;28;1837;-62
2023/06/14 00:23:34;;;;;;;4.80;3.22;;;;;;;18.16;45.44;98987.34;341080;28;1732;-62
2023/06/14 00:23:46;;;;;;;5.65;3.20;;;;;;;18.12;45.26;98986.72;342027;28;1327;-63
2023/06/14 00:23:58;;;;;;;6.57;3.30;;;;;;;18.06;45.62;98986.34;342219;28;1056;-63
2023/06/14 00:24:10;;;;;;;6.10;3.22;;;;;;;17.99;46.23;98988.59;342102;28;1045;-63
2023/06/14 00:24:22;;;;;;;5.57;3.10;;;;;;;18.01;46.23;98983.19;341287;28;1646;-62
2023/06/14 00:24:34;;;;;;;4.03;3.10;;;;;;;17.94;45.50;98986.28;341216;28;1725;-63
2023/06/14 00:24:46;;;;;;;4.20;3.20;;;;;;;17.94;45.57;98985.44;342482;28;1411;-63
2023/06/14 00:24:58;;;;;;;4.45;3.40;;;;;;;17.93;46.12;98989.88;343490;28;1287;-62
2023/06/14 00:25:12;;;;;;;4.10;3.30;;;;;;;17.90;45.11;98982.22;342460;28;1658;-62
2023/06/14 00:25:39;;;;;;;4.13;3.20;;;;;;;17.90;45.93;98978.75;343686;28;1788;-62
2023/06/14 00:25:51;;;;;;;4.50;3.42;;;;;;;17.91;46.35;98985.69;343392;28;1253;-63
2023/06/14 00:26:03;;;;;;;5.30;3.35;;;;;;;17.93;45.74;98979.38;344713;28;1090;-62
2023/06/14 00:26:16;;;;;;;5.85;3.50;;;;;;;17.90;47.54;98979.56;344521;28;1638;-62
2023/06/14 00:26:28;;;;;;;5.88;3.55;;;;;;;17.92;47.01;98982.09;343473;28;2218;-63
2023/06/14 00:26:40;;;;;;;5.82;3.75;;;;;;;17.88;46.80;98986.75;344437;28;1417;-62
2023/06/14 00:26:51;;;;;;;4.43;3.60;;;;;;;17.88;46.85;98976.22;343943;28;1771;-62
2023/06/14 00:27:06;;;;;;;5.95;3.60;;;;;;;17.89;45.99;98977.91;344897;28;1107;-63
2023/06/14 00:27:18;;;;;;;6.43;3.58;;;;;;;17.92;46.11;98979.47;344192;28;1681;-62
2023/06/14 00:27:30;;;;;;;4.68;3.33;;;;;;;17.93;46.93;98983.78;344602;28;1912;-63
2023/06/14 00:27:42;;;;;;;4.70;3.47;;;;;;;17.95;46.68;98977.47;344027;28;1095;-63
2023/06/14 00:27:55;;;;;;;4.30;3.20;;;;;;;18.00;46.46;98978.91;342764;28;1686;-63
2023/06/14 00:28:07;;;;;;;4.40;3.17;;;;;;;18.01;46.67;98985.81;344136;28;1679;-63
2023/06/14 00:28:20;;;;;;;5.10;3.38;;;;;;;17.99;46.19;98987.72;342137;28;2156;-63
2023/06/14 00:28:34;;;;;;;4.70;3.50;;;;;;;18.01;46.62;98975.31;342952;28;1950;-63
2023/06/14 00:28:46;;;;;;;4.55;3.45;;;;;;;18.05;46.26;98976.75;343328;28;1852;-63
2023/06/14 00:28:58;;;;;;;5.78;3.25;;;;;;;18.07;46.25;98982.75;342776;28;1636;-63
2023/06/14 00:29:10;;;;;;;6.00;3.42;;;;;;;18.07;46.40;98980.13;343900;28;1735;-63
2023/06/14 00:29:22;;;;;;;5.85;3.58;;;;;;;18.07;46.08;98980.97;342852;28;2132;-63
2023/06/14 00:29:34;;;;;;;6.07;3.53;;;;;;;18.09;46.09;98978.22;343485;28;1853;-63
2023/06/14 00:29:46;;;;;;;6.28;3.97;;;;;;;18.09;45.75;98979.06;343018;28;1116;-62
2023/06/14 00:29:58;;;;;;;5.72;4.05;;;;;;;18.09;45.45;98979.06;343936;28;1596;-62
2023/06/14 00:30:11;;;;;;;5.78;3.80;;;;;;;18.10;45.39;98974.63;344473;28;1846;-63
2023/06/14 00:30:24;;;;;;;4.72;3.30;;;;;;;18.11;45.66;98979.78;343463;28;2003;-62
2023/06/14 00:30:36;;;;;;;6.15;3.25;;;;;;;18.13;45.73;98975.25;345030;28;1173;-62
2023/06/14 00:30:48;;;;;;;5.40;3.13;;;;;;;18.10;46.39;98974.63;344813;28;1339;-63
2023/06/14 00:31:02;;;;;;;4.80;3.13;;;;;;;18.11;45.20;98981.56;344516;28;1829;-63
2023/06/14 00:31:15;;;;;;;3.80;3.40;;;;;;;18.10;46.22;98985.16;344748;28;1116;-63
2023/06/14 00:31:27;;;;;;;4.30;3.50;;;;;;;18.07;46.28;98985.38;344198;28;1612;-63
2023/06/14 00:31:39;;;;;;;4.85;3.42;;;;;;;18.08;46.36;98979.19;344819;28;1850;-62
2023/06/14 00:31:51;;;;;;;4.95;3.47;;;;;;;18.07;45.83;98980.13;343782;28;1136;-63
2023/06/14 00:32:03;;;;;;;8.38;3.55;;;;;;;18.07;46.20;98985.38;343768;28;1883;-63
2023/06/14 00:32:15;;;;;;;8.13;3.53;;;;;;;18.10;46.14;98987.78;344555;28;1662;-63
2023/06/14 00:32:27;;;;;;;7.50;3.20;;;;;;;18.11;45.90;98986.81;344871;28;1111;-62
2023/06/14 00:32:40;;;;;;;3.90;3.15;;;;;;;18.08;47.74;98981.81;344486;28;1582;-62
2023/06/14 00:32:52;;;;;;;3.58;3.10;;;;;;;18.06;47.37;98981.09;344949;28;1008;-63
2023/06/14 00:33:04;;;;;;;4.25;3.10;;;;;;;18.06;46.91;98983.72;344507;28;1722;-63
2023/06/14 00:33:16;;;;;;;4.45;3.28;;;;;;;18.05;46.93;98982.03;344793;28;2058;-63
2023/06/14 00:33:28;;;;;;;4.43;3.35;;;;;;;18.05;46.25;98977.63;344230;28;2136;-63
2023/06/14 00:33:40;;;;;;;4.13;3.38;;;;;;;18.06;47.05;98983.72;344753;28;1892;-63
2023/06/14 00:33:52;;;;;;;4.07;3.42;;;;;;;18.07;46.85;98980.13;344970;28;1166;-62
2023/06/14 00:34:04;;;;;;;4.70;3.40;;;;;;;18.08;46.93;98984.44;344073;28;1884;-62
2023/06/14 00:34:16;;;;;;;5.25;3.58;;;;;;;18.05;46.95;98980.25;344204;28;1946;-63
2023/06/14 00:34:28;;;;;;;4.35;3.30;;;;;;;18.05;47.35;98987.28;344773;28;1633;-63
2023/06/14 00:34:41;;;;;;;4.50;3.20;;;;;;;17.97;47.29;98979.97;344614;28;1913;-63
2023/06/14 00:34:53;;;;;;;6.43;3.40;;;;;;;17.96;47.19;98983.53;344766;28;1194;-63
2023/06/14 00:35:05;;;;;;;6.95;3.53;;;;;;;17.94;46.91;98977.56;344734;28;1039;-62
2023/06/14 00:35:17;;;;;;;5.07;3.40;;;;;;;17.98;46.70;98983.44;344611;28;1883;-62
2023/06/14 00:35:29;;;;;;;5.38;3.28;;;;;;;18.01;46.53;98980.56;344269;28;1789;-62
2023/06/14 00:35:41;;;;;;;6.40;3.40;;;;;;;18.01;47.86;98980.56;344867;28;1975;-62
2023/06/14 00:35:55;;;;;;;5.18;3.40;;;;;;;17.98;47.45;98986.06;344975;28;1023;-63
2023/06/14 00:36:10;;;;;;;4.95;3.38;;;;;;;17.98;46.98;98981.66;343615;28;2244;-62
2023/06/14 00:36:22;;;;;;;4.95;3.50;;;;;;;18.03;47.02;98983.91;344615;28;1923;-63
2023/06/14 00:36:34;;;;;;;5.88;3.50;;;;;;;18.07;46.70;98985.38;343766;28;1984;-62
2023/06/14 00:36:46;;;;;;;6.72;3.40;;;;;;;18.08;46.73;98982.63;344585;28;1493;-62
2023/06/14 00:36:59;;;;;;;6.20;3.17;;;;;;;18.08;46.57;98979.19;344746;28;1703;-63
2023/06/14 00:37:11;;;;;;;6.28;3.28;;;;;;;18.11;46.52;98977.16;344749;28;1886;-63
2023/06/14 00:37:23;;;;;;;5.32;3.40;;;;;;;18.11;46.58;98977.16;344476;28;2018;-63
2023/06/14 00:37:35;;;;;;;4.97;3.40;;;;;;;18.11;46.52;98978.94;344117;28;2212;-63
2023/06/14 00:37:47;;;;;;;4.47;3.35;;;;;;;18.12;46.45;98978.81;344697;28;1712;-63
2023/06/14 00:37:59;;;;;;;4.53;3.40;;;;;;;18.11;46.51;98979.78;344223;28;1635;-62
2023/06/14 00:38:11;;;;;;;4.82;3.47;;;;;;;18.13;46.21;98979.69;344886;28;1025;-62
2023/06/14 00:38:23;;;;;;;5.53;3.50;;;;;;;18.10;46.95;98985.16;342779;28;1539;-62
2023/06/14 00:38:35;;;;;;;5.20;3.22;;;;;;;18.11;46.62;98981.56;342861;28;1640;-62
2023/06/14 00:38:47;;;;;;;4.22;3.15;;;;;;;18.09;46.30;98978.22;343235;28;1315;-63
2023/06/14 00:38:59;;;;;;;4.75;3.28;;;;;;;18.06;46.23;98979.28;343428;28;1063;-63
2023/06/14 00:39:11;;;;;;;5.05;3.28;;;;;;;18.04;46.86;98985.63;343469;28;1907;-63
2023/06/14 00:39:23;;;;;;;5.43;3.40;;;;;;;18.04;46.57;98980.34;342777;28;1652;-62
2023/06/14 00:39:35;;;;;;;5.60;3.50;;;;;;;18.07;46.52;98985.38;342884;28;1692;-63
2023/06/14 00:39:47;;;;;;;6.78;3.63;;;;;;;18.07;46.33;98980.13;342108;28;1809;-63
2023/06/14 00:39:59;;;;;;;5.85;3.50;;;;;;;18.08;46.36;98976.53;342594;28;1965;-63
2023/06/14 00:40:12;;;;;;;5.78;3.50;;;;;;;18.09;46.14;98972.94;343374;28;1064;-62
2023/06/14 00:40:24;;;;;;;5.82;3.50;;;;;;;18.12;46.24;98978.81;343715;28;1994;-63
2023/06/14 00:40:36;;;;;;;6.70;3.53;;;;;;;18.12;45.85;98972.72;344517;28;1920;-63
2023/06/14 00:40:48;;;;;;;5.88;3.50;;;;;;;18.12;45.84;98976.19;344335;28;1704;-63
2023/06/14 00:41:00;;;;;;;4.82;3.53;;;;;;;18.12;45.89;98972.72;343877;28;1187;-62
2023/06/14 00:41:12;;;;;;;4.88;3.60;;;;;;;18.09;46.23;98980.84;345098;28;1083;-63
2023/06/14 00:41:24;;;;;;;4.65;3.50;;;;;;;18.10;46.19;98977.28;344073;28;2364;-62
2023/06/14 00:41:36;;;;;;;4.35;3.45;;;;;;;18.10;46.10;98980.72;343391;28;1660;-63
2023/06/14 00:41:48;;;;;;;4.38;3.30;;;;;;;18.12;45.90;98983.25;342478;28;2254;-63
2023/06/14 00:42:00;;;;;;;4.50;3.20;;;;;;;18.12;45.91;98968.31;343555;28;1267;-63
2023/06/14 00:42:23;;;;;;;3.75;2.90;;;;;;;18.13;46.21;98974.44;343280;28;1189;-63
2023/06/14 00:42:35;;;;;;;4.25;3.10;;;;;;;18.15;46.04;98967.25;342914;28;1721;-62
2023/06/14 00:42:47;;;;;;;6.20;3.30;;;;;;;18.11;46.61;98973.66;342800;28;2979;-63
2023/06/14 00:43:00;;;;;;;5.50;3.35;;;;;;;18.08;45.86;98976.53;343195;28;2022;-63
2023/06/14 00:43:12;;;;;;;4.95;3.35;;;;;;;18.06;45.97;98983.72;342734;28;1699;-63
2023/06/14 00:43:24;;;;;;;4.07;3.38;;;;;;;18.05;45.94;98972.34;342052;28;1726;-62
2023/06/14 00:43:36;;;;;;;4.53;3.40;;;;;;;18.03;46.23;98978.66;343616;28;1878;-62
2023/06/14 00:43:48;;;;;;;4.63;3.35;;;;;;;18.05;46.68;98980.25;344687;28;1250;-62
2023/06/14 00:44:00;;;;;;;4.20;3.25;;;;;;;18.06;46.41;98975.81;343906;28;1752;-62
2023/06/14 00:44:16;;;;;;;5.70;3.30;;;;;;;18.03;46.97;98974.25;344353;28;1713;-63
2023/06/14 00:44:28;;;;;;;7.53;3.42;;;;;;;18.03;46.77;98979.53;344746;28;1626;-62
2023/06/14 00:44:40;;;;;;;6.72;3.50;;;;;;;18.02;46.74;98977.84;344864;28;2130;-62
2023/06/14 00:44:52;;;;;;;5.72;3.47;;;;;;;18.02;46.70;98977.00;344148;28;1595;-63
2023/06/14 00:45:05;;;;;;;5.18;3.28;;;;;;;18.03;47.54;98978.66;343454;28;1657;-63
2023/06/14 00:45:17;;;;;;;3.65;3.20;;;;;;;18.01;47.58;98976.19;344120;28;2765;-62
2023/06/14 00:45:31;;;;;;;3.95;3.25;;;;;;;17.96;47.90;98979.13;344268;28;1611;-62
2023/06/14 00:45:44;;;;;;;4.47;3.55;;;;;;;17.96;47.41;98971.22;344353;28;1622;-63
2023/06/14 00:45:56;;;;;;;5.70;3.70;;;;;;;17.95;47.22;98972.19;344615;28;2076;-63
2023/06/14 00:46:08;;;;;;;5.85;3.67;;;;;;;17.98;47.38;98970.28;345015;28;1070;-62
2023/06/14 00:46:22;;;;;;;5.10;3.42;;;;;;;17.96;47.66;98975.66;345049;28;1324;-63
2023/06/14 00:46:34;;;;;;;3.63;3.20;;;;;;;17.96;47.42;98975.66;343780;28;1890;-62
2023/06/14 00:46:46;;;;;;;4.50;3.20;;;;;;;18.00;47.28;98978.91;344547;28;1504;-62
2023/06/14 00:46:58;;;;;;;5.50;3.35;;;;;;;17.99;47.42;98983.34;344695;28;1131;-63
2023/06/14 00:47:10;;;;;;;5.15;3.40;;;;;;;18.01;46.94;98976.19;344527;28;1658;-62
2023/06/14 00:47:22;;;;;;;4.55;3.65;;;;;;;18.02;47.13;98972.56;345049;28;1270;-62
2023/06/14 00:47:37;;;;;;;5.82;3.65;;;;;;;18.06;46.77;98975.81;344569;28;1912;-62
2023/06/14 00:47:52;;;;;;;5.63;3.57;;;;;;;18.09;46.61;98975.56;344703;28;1094;-63
2023/06/14 00:48:07;;;;;;;4.47;3.30;;;;;;;18.08;47.17;98980.00;344193;28;1864;-63
2023/06/14 00:48:19;;;;;;;4.57;3.40;;;;;;;18.06;46.65;98975.81;344328;28;1943;-62
2023/06/14 00:48:33;;;;;;;6.45;3.50;;;;;;;18.06;46.22;98975.81;345050;28;1162;-63
2023/06/14 00:48:45;;;;;;;6.03;3.60;;;;;;;18.08;46.29;98976.53;344333;28;1216;-63
2023/06/14 00:49:00;;;;;;;6.35;3.38;;;;;;;18.08;46.00;98977.38;344884;28;1117;-63
2023/06/14 00:49:15;;;;;;;7.50;3.55;;;;;;;18.07;46.25;98980.97;343701;28;1142;-63
2023/06/14 00:49:29;;;;;;;5.05;3.65;;;;;;;18.07;46.42;98974.84;342858;28;2986;-63
2023/06/14 00:49:41;;;;;;;4.47;3.50;;;;;;;18.04;47.29;98975.09;343786;28;1864;-62
2023/06/14 00:49:55;;;;;;;4.85;3.42;;;;;;;17.99;47.58;98978.06;344297;28;1620;-63
2023/06/14 00:50:08;;;;;;;4.68;3.55;;;;;;;17.99;47.47;98975.44;344821;28;1670;-62
2023/06/14 00:50:21;;;;;;;5.93;3.50;;;;;;;17.99;47.23;98977.22;343298;28;1489;-62
2023/06/14 00:50:34;;;;;;;8.25;3.67;;;;;;;17.95;47.50;98971.38;344930;28;1772;-62
2023/06/14 00:50:48;;;;;;;7.63;3.70;;;;;;;17.96;47.03;98979.13;344171;28;1263;-63
2023/06/14 00:51:03;;;;;;;5.15;3.45;;;;;;;17.99;47.03;98977.22;344288;28;1677;-63
2023/06/14 00:51:15;;;;;;;4.10;3.20;;;;;;;17.98;46.89;98978.19;343261;28;1742;-62
2023/06/14 00:51:27;;;;;;;4.57;3.28;;;;;;;17.95;47.05;98966.94;344100;28;1706;-62
2023/06/14 00:51:39;;;;;;;5.72;3.55;;;;;;;17.94;46.90;98981.03;343636;28;1103;-62
2023/06/14 00:51:51;;;;;;;5.47;3.57;;;;;;;17.92;47.50;98972.41;344574;28;1196;-62
2023/06/14 00:52:04;;;;;;;4.93;3.50;;;;;;;17.96;46.81;98978.28;344584;28;2173;-63
2023/06/14 00:52:17;;;;;;;4.18;3.50;;;;;;;17.95;47.26;98979.25;344763;28;1864;-63
2023/06/14 00:52:29;;;;;;;4.00;3.50;;;;;;;17.96;46.92;98978.28;344068;28;1032;-63
2023/06/14 00:52:41;;;;;;;4.05;3.55;;;;;;;17.97;46.79;98979.97;343386;28;1677;-63
2023/06/14 00:52:53;;;;;;;5.70;3.60;;;;;;;17.96;46.76;98973.84;344574;28;1827;-63
2023/06/14 00:53:05;;;;;;;6.15;3.65;;;;;;;17.98;46.64;98983.44;345072;28;1063;-63
2023/06/14 00:53:20;;;;;;;5.10;3.53;;;;;;;17.98;47.16;98980.81;344634;28;1877;-63
2023/06/14 00:53:35;;;;;;;5.03;3.38;;;;;;;17.94;47.77;98978.41;343823;28;1575;-63
2023/06/14 00:53:47;;;;;;;6.25;3.30;;;;;;;17.95;46.47;98985.34;344217;28;1674;-62
2023/06/14 00:54:02;;;;;;;5.70;3.30;;;;;;;17.98;46.48;98975.56;346046;28;1689;-63
2023/06/14 00:54:14;;;;;;;4.68;3.40;;;;;;;17.95;46.50;98982.72;346438;28;1104;-63
2023/06/14 00:54:26;;;;;;;4.72;3.50;;;;;;;17.89;46.55;98984.97;344485;28;2010;-63
2023/06/14 00:54:40;;;;;;;4.53;3.50;;;;;;;17.92;46.88;98976.84;344151;28;2003;-63
2023/06/14 00:54:52;;;;;;;5.55;3.60;;;;;;;17.94;46.54;98981.03;343929;28;1084;-62
2023/06/14 00:55:05;;;;;;;5.30;3.58;;;;;;;17.93;46.45;98979.38;344742;28;1194;-62
2023/06/14 00:55:17;;;;;;;4.40;3.50;;;;;;;17.91;47.14;98981.25;343933;28;1110;-62
2023/06/14 00:55:30;;;;;;;4.70;3.50;;;;;;;17.89;47.97;98982.34;344204;28;2204;-62
2023/06/14 00:55:41;;;;;;;4.85;3.60;;;;;;;17.89;47.51;98983.16;342980;28;1991;-63
2023/06/14 00:55:53;;;;;;;4.55;3.47;;;;;;;17.89;47.90;98980.53;343578;28;1076;-63
2023/06/14 00:56:05;;;;;;;3.97;3.40;;;;;;;17.93;47.12;98976.72;343356;28;2016;-63
2023/06/14 00:56:20;;;;;;;6.00;3.40;;;;;;;17.95;46.86;98982.72;343449;28;1116;-63
2023/06/14 00:56:32;;;;;;;5.93;3.35;;;;;;;17.96;46.64;98983.53;342801;28;1485;-62
2023/06/14 00:56:45;;;;;;;5.28;3.30;;;;;;;17.96;46.32;98973.84;343261;28;2110;-62
2023/06/14 00:56:57;;;;;;;3.97;3.55;;;;;;;17.96;45.99;98979.13;343556;28;1146;-63
2023/06/14 00:57:11;;;;;;;4.32;3.67;;;;;;;17.94;45.87;98983.66;343436;28;1659;-63
2023/06/14 00:57:23;;;;;;;4.10;3.42;;;;;;;17.94;45.86;98975.75;343495;28;1067;-63
2023/06/14 00:57:37;;;;;;;3.97;3.30;;;;;;;17.94;45.97;98977.56;342573;28;1840;-62
2023/06/14 00:57:49;;;;;;;6.05;3.30;;;;;;;17.94;45.86;98978.41;343271;28;2446;-63
2023/06/14 00:58:01;;;;;;;6.72;3.40;;;;;;;17.95;45.98;98979.25;344152;28;1755;-63
2023/06/14 00:58:14;;;;;;;4.90;3.40;;;;;;;17.95;46.07;98977.47;343813;28;1304;-63
2023/06/14 00:58:27;;;;;;;6.25;3.38;;;;;;;17.93;46.38;98984.63;344038;28;1637;-62
2023/06/14 00:58:39;;;;;;;6.30;3.30;;;;;;;17.90;46.67;98974.31;345188;28;1844;-63
2023/06/14 00:58:51;;;;;;;5.60;3.33;;;;;;;17.90;46.59;98979.56;344561;28;1019;-62
2023/06/14 00:59:03;;;;;;;3.72;3.15;;;;;;;17.92;46.57;98982.94;344957;28;1016;-63
2023/06/14 00:59:16;;;;;;;3.85;3.22;;;;;;;17.93;46.29;98976.72;344922;28;1195;-63
2023/06/14 00:59:28;;;;;;;4.20;3.38;;;;;;;17.93;45.98;98984.63;344341;28;1721;-62
2023/06/14 00:59:45;;;;;;;4.13;3.45;;;;;;;17.92;45.95;98972.41;343657;28;1960;-63
2023/06/14 00:59:57;;;;;;;3.80;3.40;;;;;;;17.92;45.88;98982.94;343721;28;1322;-62
2023/06/14 01:00:10;;;;;;;4.07;3.58;;;;;;;17.90;45.84;98979.56;343834;28;1064;-63
2023/06/14 01:00:22;;;;;;;4.32;3.60;;;;;;;17.89;45.85;98988.44;343475;28;1786;-63
2023/06/14 01:00:34;;;;;;;4.68;3.70;;;;;;;17.87;45.98;98985.06;345156;28;1613;-63
2023/06/14 01:00:46;;;;;;;4.53;3.55;;;;;;;17.83;46.08;98983.63;345038;28;1686;-63
2023/06/14 01:00:58;;;;;;;4.72;3.58;;;;;;;17.82;46.07;98992.41;345947;28;1902;-62
2023/06/14 01:01:11;;;;;;;6.93;3.42;;;;;;;17.83;46.03;98988.00;344825;28;1228;-63
2023/06/14 01:01:24;;;;;;;7.72;3.40;;;;;;;17.81;45.96;98985.50;344965;28;1057;-62
2023/06/14 01:01:36;;;;;;;5.72;3.22;;;;;;;17.80;45.97;98989.06;344357;28;1655;-62
2023/06/14 01:01:48;;;;;;;4.85;3.38;;;;;;;17.76;46.30;98992.88;344502;28;1337;-62
2023/06/14 01:02:03;;;;;;;4.20;3.33;;;;;;;17.66;47.24;98986.59;344906;28;1065;-62